This is the latest recevied weather packets stored in our database for station/object VE7GEL. If no packets are shown the sender has not sent any weather packets the latest 1 day(s).
| Time | Temp. | Humidity | Pressure | Rain* | Wind** | Luminosity | Snow |
|---|---|---|---|---|---|---|---|
| 1778042891 | 14.44° C | 72% | 1013.9 hPa | 0 mm | - | 0 W/m² | - |
| 1778041991 | 15° C | 73% | 1013.6 hPa | 0 mm | - | 0 W/m² | - |
| 1778041091 | 15.56° C | 74% | 1013.6 hPa | 0 mm | - | 0 W/m² | - |
| 1778040939 | 15.56° C | 73% | 1013.9 hPa | 0 mm | - | 0 W/m² | - |
| 1778039286 | 15.56° C | 72% | 1013.2 hPa | 0 mm | - | 0 W/m² | - |
| 1778039103 | 15.56° C | 72% | 1013.5 hPa | 0 mm | - | 0 W/m² | - |
| 1778038203 | 15.56° C | 72% | 1013.4 hPa | 0 mm | - | 3 W/m² | - |
| 1778036580 | 16.67° C | 67% | 1013.1 hPa | 0 mm | - | 10 W/m² | - |
| 1778035680 | 16.67° C | 69% | 1013 hPa | 0 mm | - | 14 W/m² | - |
| 1778034779 | 17.22° C | 69% | 1013 hPa | 0 mm | - | 20 W/m² | - |
| 1778033878 | 18.33° C | 66% | 1013.1 hPa | 0 mm | - | 73 W/m² | - |
| 1778032975 | 18.33° C | 65% | 1013.1 hPa | 0 mm | - | 134 W/m² | - |
| 1778032078 | 18.89° C | 64% | 1013.1 hPa | 0 mm | - | 176 W/m² | - |
| 1778031903 | 18.89° C | 63% | 1013.5 hPa | 0 mm | - | 185 W/m² | - |
| 1778031175 | 18.89° C | 63% | 1013.3 hPa | 0 mm | - | 222 W/m² | - |
| 1778030276 | 18.89° C | 63% | 1013.3 hPa | 0 mm | - | 269 W/m² | - |
| 1778028475 | 18.89° C | 62% | 1013.3 hPa | 0 mm | - | 366 W/m² | - |
| 1778027573 | 19.44° C | 61% | 1013.4 hPa | 0 mm | - | 413 W/m² | - |
| 1778026675 | 18.89° C | 61% | 1013.6 hPa | 0 mm | - | 462 W/m² | - |
| 1778024872 | 18.89° C | 60% | 1013.9 hPa | 0 mm | - | 554 W/m² | - |
| 1778020370 | 16.11° C | 74% | 1014.6 hPa | 0 mm | - | 741 W/m² | - |
| 1778019303 | 15.56° C | 76% | 1015.3 hPa | 0 mm | - | 787 W/m² | - |
| 1778017669 | 14.44° C | 79% | 1014.8 hPa | 0 mm | - | 52 W/m² | - |
| 1778015868 | 13.33° C | 84% | 1014.9 hPa | 0 mm | - | 48 W/m² | - |
| 1778013163 | 12.78° C | 86% | 1015.3 hPa | 0 mm | - | 42 W/m² | - |
* Rain latest hour (hover to see other rain measurements)
** Current wind speed in m/s (hover to see current wind gust speed)